createdAt,value
2023-02-18T00:00:34.871Z,11.18
2023-02-18T00:03:02.443Z,10.88
2023-02-18T00:05:30.987Z,11.27
2023-02-18T00:07:58.363Z,12.43
2023-02-18T00:10:25.995Z,12.90
2023-02-18T00:12:53.456Z,11.35
2023-02-18T00:15:22.121Z,11.00
2023-02-18T00:17:50.479Z,10.18
2023-02-18T00:20:17.738Z,12.45
2023-02-18T00:22:45.239Z,11.10
2023-02-18T00:25:12.487Z,11.10
2023-02-18T00:27:39.853Z,11.15
2023-02-18T00:30:08.162Z,10.80
2023-02-18T00:32:37.595Z,12.23
2023-02-18T00:35:05.546Z,11.82
2023-02-18T00:37:35.311Z,12.63
2023-02-18T00:40:03.220Z,12.27
2023-02-18T00:42:33.280Z,13.40
2023-02-18T00:45:00.611Z,10.82
2023-02-18T00:47:27.964Z,13.48
2023-02-18T00:49:55.311Z,13.20
2023-02-18T00:52:22.693Z,11.93
2023-02-18T00:54:50.556Z,12.48
2023-02-18T00:57:17.807Z,14.13
2023-02-18T00:59:45.669Z,11.15
2023-02-18T01:02:12.888Z,11.88
2023-02-18T01:04:40.201Z,11.68
2023-02-18T01:07:10.308Z,11.75
2023-02-18T01:09:37.864Z,12.02
2023-02-18T01:12:05.356Z,11.70
2023-02-18T01:14:32.631Z,13.25
2023-02-18T01:16:59.916Z,11.23
2023-02-18T01:19:27.146Z,12.30
2023-02-18T01:21:54.441Z,12.68
2023-02-18T01:24:21.840Z,12.48
2023-02-18T01:26:49.311Z,11.20
2023-02-18T01:29:16.634Z,12.15
2023-02-18T01:31:43.979Z,12.45
2023-02-18T01:34:11.254Z,12.88
2023-02-18T01:36:40.192Z,12.43
2023-02-18T01:39:09.312Z,13.93
2023-02-18T01:41:36.669Z,13.55
2023-02-18T01:44:20.701Z,13.30
2023-02-18T01:46:49.205Z,12.05
2023-02-18T01:49:27.258Z,10.90
2023-02-18T01:52:02.888Z,14.40
2023-02-18T01:54:35.703Z,12.57
2023-02-18T01:57:13.905Z,12.23
2023-02-18T02:00:08.866Z,12.18
2023-02-18T02:02:39.431Z,11.30
2023-02-18T02:05:06.871Z,13.35
2023-02-18T02:07:34.506Z,12.10
2023-02-18T02:10:01.736Z,11.80
2023-02-18T02:12:49.791Z,12.43
2023-02-18T02:15:41.896Z,11.93
2023-02-18T02:18:28.816Z,10.73
2023-02-18T02:21:24.233Z,10.32
2023-02-18T02:24:12.492Z,14.48
2023-02-18T02:27:12.381Z,12.50
2023-02-18T02:29:49.486Z,12.60
2023-02-18T02:32:44.365Z,11.18
2023-02-18T02:35:27.714Z,10.75
2023-02-18T02:38:05.153Z,11.27
2023-02-18T02:40:43.039Z,13.02
2023-02-18T02:43:16.516Z,11.63
2023-02-18T02:45:59.993Z,13.20
2023-02-18T02:48:27.114Z,14.20
2023-02-18T02:51:02.067Z,11.43
2023-02-18T02:53:31.391Z,12.23
2023-02-18T02:55:58.663Z,11.52
2023-02-18T02:58:25.891Z,15.00
2023-02-18T03:00:58.953Z,12.32
2023-02-18T03:03:42.439Z,13.43
2023-02-18T03:06:40.945Z,15.00
2023-02-18T03:09:23.915Z,15.07
2023-02-18T03:12:01.723Z,13.45
2023-02-18T03:14:32.645Z,13.45
2023-02-18T03:17:02.998Z,16.33
2023-02-18T03:19:34.514Z,12.93
2023-02-18T03:22:17.105Z,13.88
2023-02-18T03:24:46.751Z,15.65
2023-02-18T03:27:32.875Z,16.17
2023-02-18T03:30:13.869Z,14.93
2023-02-18T03:32:41.682Z,14.43
2023-02-18T03:35:11.597Z,14.60
2023-02-18T03:37:43.385Z,13.38
2023-02-18T03:40:11.077Z,13.95
2023-02-18T03:42:38.700Z,13.70
2023-02-18T03:45:06.193Z,15.80
2023-02-18T03:47:33.639Z,13.98
2023-02-18T03:50:00.875Z,15.60
2023-02-18T03:52:28.136Z,11.88
2023-02-18T03:54:55.333Z,14.32
2023-02-18T03:57:22.619Z,15.20
2023-02-18T03:59:50.259Z,15.35
2023-02-18T04:02:17.532Z,15.38
2023-02-18T04:04:44.782Z,13.27
2023-02-18T04:07:12.010Z,14.90
2023-02-18T04:09:44.463Z,13.70
2023-02-18T04:12:11.791Z,15.13
2023-02-18T04:14:38.981Z,13.32
2023-02-18T04:17:06.278Z,15.63
2023-02-18T04:19:33.654Z,13.88
2023-02-18T04:22:01.963Z,15.00
2023-02-18T04:24:29.312Z,13.35
2023-02-18T04:26:56.508Z,16.38
2023-02-18T04:29:24.019Z,16.10
2023-02-18T04:31:51.252Z,16.75
2023-02-18T04:34:18.651Z,14.27
2023-02-18T04:36:46.121Z,15.30
2023-02-18T04:39:13.388Z,15.65
2023-02-18T04:41:40.829Z,16.20
2023-02-18T04:44:09.911Z,17.77
2023-02-18T04:46:37.367Z,13.82
2023-02-18T04:49:05.990Z,16.30
2023-02-18T04:51:33.258Z,17.42
2023-02-18T04:54:00.958Z,17.15
2023-02-18T04:56:28.233Z,15.23
2023-02-18T04:58:55.770Z,16.33
2023-02-18T05:01:23.104Z,16.67
2023-02-18T05:03:50.402Z,16.75
2023-02-18T05:06:17.711Z,19.08
2023-02-18T05:08:45.177Z,17.85
2023-02-18T05:11:14.777Z,18.25
2023-02-18T05:13:44.482Z,18.50
2023-02-18T05:16:16.846Z,17.10
2023-02-18T05:18:44.153Z,18.08
2023-02-18T05:21:12.208Z,17.67
2023-02-18T05:23:39.404Z,18.48
2023-02-18T05:26:06.870Z,19.08
2023-02-18T05:28:34.518Z,18.10
2023-02-18T05:31:01.818Z,19.27
2023-02-18T05:33:35.041Z,18.42
2023-02-18T05:36:02.554Z,17.92
2023-02-18T05:38:30.000Z,20.20
2023-02-18T05:40:57.249Z,19.33
2023-02-18T05:43:24.495Z,21.17
2023-02-18T05:45:51.817Z,20.10
2023-02-18T05:48:19.256Z,17.20
2023-02-18T05:50:46.514Z,19.05
2023-02-18T05:53:16.145Z,19.83
2023-02-18T05:55:44.749Z,20.33
2023-02-18T05:58:13.702Z,18.73
2023-02-18T06:00:41.045Z,17.67
2023-02-18T06:03:08.432Z,17.23
2023-02-18T06:05:35.824Z,13.25
2023-02-18T06:08:03.267Z,15.75
2023-02-18T06:10:30.789Z,13.73
2023-02-18T06:13:02.461Z,13.95
2023-02-18T06:15:29.861Z,12.43
2023-02-18T06:17:58.253Z,13.60
2023-02-18T06:20:25.518Z,12.75
2023-02-18T06:22:52.729Z,11.43
2023-02-18T06:25:19.958Z,9.80
2023-02-18T06:27:51.842Z,11.48
2023-02-18T06:30:19.154Z,12.00
2023-02-18T06:32:46.490Z,12.63
2023-02-18T06:35:14.253Z,10.88
2023-02-18T06:37:41.513Z,11.57
2023-02-18T06:40:09.116Z,10.18
2023-02-18T06:42:36.784Z,8.82
2023-02-18T06:45:04.312Z,9.50
2023-02-18T06:47:31.701Z,9.32
2023-02-18T06:49:58.915Z,8.73
2023-02-18T06:52:26.289Z,7.93
2023-02-18T06:54:53.555Z,7.70
2023-02-18T06:57:20.743Z,7.57
2023-02-18T06:59:48.299Z,7.05
2023-02-18T07:02:15.611Z,8.82
2023-02-18T07:04:42.877Z,9.30
2023-02-18T07:07:10.384Z,8.63
2023-02-18T07:09:37.668Z,7.43
2023-02-18T07:12:06.758Z,7.68
2023-02-18T07:14:33.992Z,8.63
2023-02-18T07:17:01.201Z,7.30
2023-02-18T07:19:29.063Z,7.30
2023-02-18T07:21:57.924Z,8.38
2023-02-18T07:24:25.246Z,8.48
2023-02-18T07:29:56.253Z,7.63
2023-02-18T07:32:26.858Z,9.20
2023-02-18T07:34:54.141Z,10.48
2023-02-18T07:37:23.684Z,10.00
2023-02-18T07:39:54.432Z,11.32
2023-02-18T07:42:21.937Z,10.65
2023-02-18T07:44:49.444Z,10.63
2023-02-18T07:47:19.935Z,10.52
2023-02-18T07:49:47.499Z,9.23
2023-02-18T07:52:17.474Z,9.45
2023-02-18T07:54:48.463Z,9.35
2023-02-18T07:57:16.023Z,9.20
2023-02-18T07:59:43.383Z,9.35
2023-02-18T08:02:21.788Z,9.63
2023-02-18T08:04:49.272Z,7.75
2023-02-18T08:07:17.615Z,9.40
2023-02-18T08:09:45.028Z,9.70
2023-02-18T08:12:12.479Z,9.60
2023-02-18T08:17:46.972Z,10.32
2023-02-18T08:20:15.910Z,11.25
2023-02-18T08:22:43.597Z,10.85
2023-02-18T08:25:23.960Z,12.43
2023-02-18T08:27:58.645Z,9.93
2023-02-18T08:30:26.824Z,11.23
2023-02-18T08:32:54.483Z,11.48
2023-02-18T08:35:22.138Z,11.35
2023-02-18T08:37:53.227Z,11.35
2023-02-18T08:40:23.774Z,11.55
2023-02-18T08:42:52.119Z,9.68
2023-02-18T08:45:19.514Z,13.30
2023-02-18T08:48:18.754Z,12.10
2023-02-18T08:50:35.161Z,13.38
2023-02-18T08:53:03.664Z,12.70
2023-02-18T08:55:33.068Z,13.63
2023-02-18T08:58:01.200Z,13.88
2023-02-18T09:00:29.768Z,15.00
2023-02-18T09:02:57.565Z,14.82
2023-02-18T09:05:29.901Z,15.93
2023-02-18T09:07:58.362Z,14.88
2023-02-18T09:10:25.793Z,16.15
2023-02-18T09:12:56.214Z,14.88
2023-02-18T09:15:24.171Z,14.70
2023-02-18T09:17:56.383Z,14.73
2023-02-18T09:20:23.900Z,14.52
2023-02-18T09:22:51.277Z,14.65
2023-02-18T09:25:19.037Z,13.60
2023-02-18T09:27:46.464Z,16.30
2023-02-18T09:30:15.268Z,12.65
2023-02-18T09:32:43.900Z,13.57
2023-02-18T09:35:13.265Z,14.30
2023-02-18T09:37:41.913Z,12.88
2023-02-18T09:40:16.582Z,13.48
2023-02-18T09:42:45.336Z,13.02
2023-02-18T09:45:13.600Z,13.15
2023-02-18T09:47:45.138Z,12.95
2023-02-18T09:50:22.114Z,14.48
2023-02-18T09:52:49.883Z,11.07
2023-02-18T09:55:33.845Z,14.70
2023-02-18T09:58:07.427Z,12.85
2023-02-18T10:01:05.350Z,14.70
2023-02-18T10:03:44.530Z,13.13
2023-02-18T10:06:34.161Z,13.85
2023-02-18T10:09:12.056Z,14.40
2023-02-18T10:11:41.867Z,14.73
2023-02-18T10:14:15.891Z,12.77
2023-02-18T10:16:47.249Z,14.13
2023-02-18T10:19:35.945Z,12.88
2023-02-18T10:22:09.960Z,14.00
2023-02-18T10:28:11.885Z,13.30
2023-02-18T10:31:09.789Z,13.73
2023-02-18T10:34:05.358Z,15.48
2023-02-18T10:36:46.293Z,13.80
2023-02-18T10:40:01.310Z,15.02
2023-02-18T10:43:12.864Z,15.45
2023-02-18T10:50:00.889Z,13.48
2023-02-18T10:55:59.386Z,14.25
2023-02-18T10:58:45.688Z,14.68
2023-02-18T11:01:32.367Z,13.25
2023-02-18T11:06:44.837Z,13.57
2023-02-18T11:09:35.731Z,15.43
2023-02-18T11:12:31.833Z,16.58
2023-02-18T11:15:14.658Z,13.77
2023-02-18T11:17:47.055Z,17.05
2023-02-18T11:20:23.762Z,14.70
2023-02-18T11:22:51.566Z,15.93
2023-02-18T11:25:27.061Z,16.33
2023-02-18T11:28:02.656Z,16.88
2023-02-18T11:30:38.240Z,15.57
2023-02-18T11:33:21.980Z,17.77
2023-02-18T11:35:53.751Z,15.82
2023-02-18T11:38:24.498Z,16.70
2023-02-18T11:40:56.650Z,18.65
2023-02-18T11:43:24.365Z,14.02
2023-02-18T11:46:11.500Z,16.23
2023-02-18T11:48:41.702Z,12.50
2023-02-18T11:51:28.114Z,14.02
2023-02-18T11:54:06.528Z,11.93
2023-02-18T11:56:35.805Z,13.85
2023-02-18T11:59:03.770Z,13.05
2023-02-18T12:01:45.640Z,13.82
2023-02-18T12:04:21.626Z,13.88
2023-02-18T12:06:53.671Z,14.05
2023-02-18T12:09:35.332Z,13.95
2023-02-18T12:12:19.793Z,14.35
2023-02-18T12:14:54.722Z,14.20
2023-02-18T12:17:46.859Z,14.77
2023-02-18T12:20:52.488Z,15.38
2023-02-18T12:23:35.656Z,15.38
2023-02-18T12:26:28.597Z,17.75
2023-02-18T12:29:20.626Z,16.60
2023-02-18T12:31:53.306Z,17.92
2023-02-18T12:34:27.753Z,18.17
2023-02-18T12:37:03.001Z,18.67
2023-02-18T12:39:58.489Z,16.85
2023-02-18T12:42:45.734Z,16.55
2023-02-18T12:45:36.414Z,17.75
2023-02-18T12:48:11.848Z,17.20
2023-02-18T12:51:18.090Z,18.33
2023-02-18T12:54:11.383Z,19.10
2023-02-18T12:56:41.412Z,18.52
2023-02-18T12:59:27.468Z,20.15
2023-02-18T13:02:24.182Z,18.45
2023-02-18T13:05:40.721Z,18.45
2023-02-18T13:08:30.134Z,19.25
2023-02-18T13:11:19.540Z,19.58
2023-02-18T13:14:24.555Z,18.00
2023-02-18T13:16:53.601Z,18.45
2023-02-18T13:19:45.506Z,20.17
2023-02-18T13:22:13.115Z,19.10
2023-02-18T13:24:42.223Z,20.58
2023-02-18T13:27:30.701Z,19.20
2023-02-18T13:30:40.178Z,20.27
2023-02-18T13:33:11.340Z,20.55
2023-02-18T13:35:55.362Z,21.52
2023-02-18T13:38:56.590Z,19.52
2023-02-18T13:41:24.101Z,19.00
2023-02-18T13:43:54.906Z,19.40
2023-02-18T13:46:25.967Z,19.52
2023-02-18T13:49:07.036Z,22.05
2023-02-18T13:51:39.443Z,18.02
2023-02-18T13:54:13.286Z,19.08
2023-02-18T13:56:46.865Z,19.23
2023-02-18T13:59:32.388Z,20.45
2023-02-18T14:02:30.702Z,18.38
2023-02-18T14:05:18.854Z,19.98
2023-02-18T14:07:51.025Z,18.77
2023-02-18T14:10:28.890Z,19.45
2023-02-18T14:12:57.404Z,16.98
2023-02-18T14:15:24.993Z,17.75
2023-02-18T14:17:59.130Z,16.33
2023-02-18T14:20:38.374Z,18.02
2023-02-18T14:23:18.332Z,15.80
2023-02-18T14:25:53.727Z,16.52
2023-02-18T14:28:34.487Z,15.00
2023-02-18T14:31:14.387Z,16.38
2023-02-18T14:34:00.201Z,17.30
2023-02-18T14:36:39.646Z,14.90
2023-02-18T14:39:36.236Z,13.23
2023-02-18T14:42:09.743Z,14.75
2023-02-18T14:44:37.506Z,13.88
2023-02-18T14:47:41.821Z,14.25
2023-02-18T14:50:13.669Z,14.85
2023-02-18T14:52:44.303Z,13.07
2023-02-18T14:55:20.722Z,13.63
2023-02-18T14:57:56.227Z,13.27
2023-02-18T15:00:26.230Z,14.70
2023-02-18T15:02:54.560Z,13.55
2023-02-18T15:05:27.648Z,14.35
2023-02-18T15:08:06.024Z,12.88
2023-02-18T15:10:53.739Z,13.68
2023-02-18T15:13:27.938Z,12.40
2023-02-18T15:15:57.901Z,13.80
2023-02-18T15:18:41.330Z,14.52
2023-02-18T15:21:10.352Z,13.73
2023-02-18T15:23:40.815Z,12.95
2023-02-18T15:26:12.140Z,13.25
2023-02-18T15:28:42.810Z,12.95
2023-02-18T15:31:14.030Z,12.65
2023-02-18T15:33:43.557Z,13.82
2023-02-18T15:36:13.806Z,11.95
2023-02-18T15:38:44.496Z,10.55
2023-02-18T15:41:13.573Z,10.98
2023-02-18T15:43:54.310Z,11.52
2023-02-18T15:46:23.089Z,12.85
2023-02-18T15:48:53.497Z,12.40
2023-02-18T15:51:25.239Z,13.73
2023-02-18T15:53:54.606Z,12.77
2023-02-18T15:56:39.562Z,11.55
2023-02-18T15:59:13.986Z,11.18
2023-02-18T16:01:41.510Z,9.98
2023-02-18T16:04:09.021Z,10.77
2023-02-18T16:06:38.145Z,9.88
2023-02-18T16:09:25.475Z,9.15
2023-02-18T16:11:59.613Z,9.68
2023-02-18T16:14:47.728Z,9.20
2023-02-18T16:17:20.329Z,8.00
2023-02-18T16:20:05.698Z,6.95
2023-02-18T16:22:34.383Z,7.53
2023-02-18T16:25:14.629Z,6.95
2023-02-18T16:27:58.252Z,7.22
2023-02-18T16:30:30.900Z,7.30
2023-02-18T16:32:59.176Z,7.03
2023-02-18T16:35:30.700Z,6.88
2023-02-18T16:38:00.287Z,7.60
2023-02-18T16:40:35.311Z,7.68
2023-02-18T16:43:10.813Z,6.10
2023-02-18T16:45:42.887Z,6.13
2023-02-18T16:48:30.655Z,4.63
2023-02-18T16:51:00.034Z,4.30
2023-02-18T16:53:27.616Z,3.92
2023-02-18T16:55:55.055Z,2.88
2023-02-18T16:58:22.912Z,3.65
2023-02-18T17:00:52.121Z,3.25
2023-02-18T17:03:20.728Z,3.47
2023-02-18T17:05:48.259Z,3.88
2023-02-18T17:08:18.654Z,4.00
2023-02-18T17:10:48.326Z,4.93
2023-02-18T17:13:20.542Z,4.05
2023-02-18T17:15:50.957Z,3.78
2023-02-18T17:18:18.552Z,3.70
2023-02-18T17:20:48.482Z,3.60
2023-02-18T17:23:16.787Z,4.18
2023-02-18T17:25:51.234Z,4.20
2023-02-18T17:28:21.737Z,4.03
2023-02-18T17:30:56.943Z,4.03
2023-02-18T17:33:25.236Z,3.10
2023-02-18T17:35:52.737Z,3.33
2023-02-18T17:38:20.317Z,2.78
2023-02-18T17:40:50.162Z,3.03
2023-02-18T17:43:17.925Z,2.65
2023-02-18T17:45:50.784Z,2.88
2023-02-18T17:48:19.000Z,2.70
2023-02-18T17:50:46.644Z,2.80
2023-02-18T17:53:15.095Z,2.90
2023-02-18T17:55:43.028Z,3.78
2023-02-18T17:58:11.143Z,3.25
2023-02-18T18:00:48.760Z,2.70
2023-02-18T18:03:17.532Z,3.50
2023-02-18T18:05:48.980Z,3.25
2023-02-18T18:08:20.770Z,2.90
2023-02-18T18:10:56.117Z,2.95
2023-02-18T18:13:32.328Z,2.80
2023-02-18T18:16:00.295Z,2.90
2023-02-18T18:18:27.738Z,3.90
2023-02-18T18:20:58.810Z,3.05
2023-02-18T18:23:26.391Z,2.67
2023-02-18T18:25:54.988Z,3.00
2023-02-18T18:28:25.094Z,3.05
2023-02-18T18:30:53.741Z,3.25
2023-02-18T18:33:30.222Z,3.70
2023-02-18T18:35:58.350Z,3.80
2023-02-18T18:38:26.626Z,2.83
2023-02-18T18:40:54.289Z,3.72
2023-02-18T18:43:32.200Z,3.60
2023-02-18T18:46:00.683Z,3.58
2023-02-18T18:50:59.778Z,3.65
2023-02-18T18:53:31.924Z,3.92
2023-02-18T18:56:01.405Z,3.00
2023-02-18T18:58:28.898Z,3.72
2023-02-18T19:00:58.462Z,3.40
2023-02-18T19:03:26.526Z,3.10
2023-02-18T19:05:54.503Z,2.60
2023-02-18T19:08:22.292Z,3.20
2023-02-18T19:10:55.207Z,3.25
2023-02-18T19:13:24.847Z,3.03
2023-02-18T19:15:59.396Z,3.08
2023-02-18T19:18:27.925Z,2.55
2023-02-18T19:20:55.680Z,2.75
2023-02-18T19:23:24.564Z,2.72
2023-02-18T19:25:52.114Z,2.83
2023-02-18T19:28:20.786Z,2.95
2023-02-18T19:30:48.653Z,2.78
2023-02-18T19:33:16.186Z,2.55
2023-02-18T19:35:43.961Z,2.65
2023-02-18T19:38:14.212Z,2.97
2023-02-18T19:40:42.081Z,3.58
2023-02-18T19:43:09.788Z,3.00
2023-02-18T19:45:42.826Z,2.58
2023-02-18T19:48:11.489Z,3.40
2023-02-18T19:50:42.109Z,2.95
2023-02-18T19:53:12.541Z,2.97
2023-02-18T19:55:39.986Z,2.67
2023-02-18T19:58:07.831Z,2.63
2023-02-18T20:00:35.445Z,2.60
2023-02-18T20:03:04.168Z,2.35
2023-02-18T20:05:31.620Z,2.60
2023-02-18T20:07:59.909Z,2.33
2023-02-18T20:10:29.310Z,2.33
2023-02-18T20:12:56.821Z,2.67
2023-02-18T20:15:24.222Z,2.65
2023-02-18T20:17:54.499Z,3.50
2023-02-18T20:20:22.156Z,2.60
2023-02-18T20:22:49.702Z,3.30
2023-02-18T20:25:17.732Z,2.53
2023-02-18T20:27:59.941Z,2.78
2023-02-18T20:30:31.910Z,3.22
2023-02-18T20:33:00.590Z,2.95
2023-02-18T20:35:27.966Z,2.80
2023-02-18T20:37:55.528Z,4.75
2023-02-18T20:40:23.442Z,5.43
2023-02-18T20:42:53.512Z,4.03
2023-02-18T20:45:22.432Z,4.03
2023-02-18T20:47:50.013Z,3.25
2023-02-18T20:50:21.318Z,4.13
2023-02-18T20:52:48.853Z,4.10
2023-02-18T20:55:16.385Z,4.30
2023-02-18T20:57:43.897Z,4.38
2023-02-18T21:00:11.903Z,3.85
2023-02-18T21:02:40.112Z,3.40
2023-02-18T21:05:07.852Z,3.45
2023-02-18T21:07:35.370Z,3.83
2023-02-18T21:10:04.273Z,2.88
2023-02-18T21:12:32.023Z,3.30
2023-02-18T21:14:59.436Z,3.15
2023-02-18T21:17:26.905Z,3.88
2023-02-18T21:19:54.620Z,2.67
2023-02-18T21:22:22.105Z,2.53
2023-02-18T21:24:51.401Z,2.20
2023-02-18T21:27:18.823Z,2.38
2023-02-18T21:29:46.908Z,1.85
2023-02-18T21:32:14.593Z,2.65
2023-02-18T21:34:45.004Z,2.83
2023-02-18T21:37:12.841Z,2.92
2023-02-18T21:39:40.504Z,2.47
2023-02-18T21:42:08.470Z,3.15
2023-02-18T21:44:42.438Z,2.08
2023-02-18T21:47:11.064Z,2.80
2023-02-18T21:49:38.993Z,2.03
2023-02-18T21:52:09.787Z,2.53
2023-02-18T21:54:39.952Z,2.58
2023-02-18T21:57:15.530Z,2.58
2023-02-18T21:59:43.718Z,1.90
2023-02-18T22:02:15.726Z,1.98
2023-02-18T22:04:43.362Z,3.00
2023-02-18T22:07:11.187Z,2.20
2023-02-18T22:09:39.148Z,2.33
2023-02-18T22:12:07.031Z,2.63
2023-02-18T22:14:36.347Z,2.20
2023-02-18T22:17:04.711Z,2.92
2023-02-18T22:19:32.919Z,3.50
2023-02-18T22:22:02.739Z,2.92
2023-02-18T22:24:35.567Z,2.63
2023-02-18T22:27:03.082Z,2.60
2023-02-18T22:29:31.327Z,3.10
2023-02-18T22:31:59.219Z,3.20
2023-02-18T22:34:26.873Z,3.13
2023-02-18T22:36:54.282Z,2.58
2023-02-18T22:39:22.053Z,2.35
2023-02-18T22:41:50.043Z,2.35
2023-02-18T22:44:18.139Z,1.88
2023-02-18T22:46:45.723Z,2.25
2023-02-18T22:49:13.938Z,2.40
2023-02-18T22:51:42.839Z,2.13
2023-02-18T22:54:16.001Z,1.75
2023-02-18T22:56:43.689Z,2.08
2023-02-18T22:59:12.226Z,2.15
2023-02-18T23:01:41.413Z,2.10
2023-02-18T23:04:10.885Z,2.78
2023-02-18T23:06:39.202Z,2.03
2023-02-18T23:09:07.415Z,2.25
2023-02-18T23:11:35.452Z,1.92
2023-02-18T23:14:18.298Z,2.25
2023-02-18T23:17:09.281Z,2.22
2023-02-18T23:19:37.122Z,2.20
2023-02-18T23:22:04.988Z,3.05
2023-02-18T23:24:34.571Z,2.63
2023-02-18T23:27:02.464Z,2.47
2023-02-18T23:29:30.142Z,2.10
2023-02-18T23:31:57.651Z,2.72
2023-02-18T23:34:25.994Z,2.55
2023-02-18T23:36:54.405Z,2.50
2023-02-18T23:39:22.851Z,2.33
2023-02-18T23:41:50.562Z,2.28
2023-02-18T23:44:20.011Z,2.50
2023-02-18T23:46:47.963Z,2.50
2023-02-18T23:49:20.011Z,3.03
2023-02-18T23:51:47.627Z,2.28
2023-02-18T23:54:15.192Z,2.55
2023-02-18T23:56:42.717Z,2.58
2023-02-18T23:59:10.726Z,2.55
